Dugspur, Virginia
Current Conditions -  °F | °C
As of 8:35 PM on Wednesday 22 Oct 2014 (Local Time) from KHLX Reporting Station
Overcast Overcast  
Wind Chill: 36°   Ceiling: 2200
Heat Index: 44°   Visibility: 10mi
Dew Point: 38°   Wind: 20mph
Humidity: 79%   Direction: 330°NNW
Pressure: 30.1"   Gusts: 25mph
Location:  36.82°N, 80.61°W
Report Text: KHLX 230035Z AUTO 33017G22KT 10SM OVC022 07/03 A3010 RMK AO2 T00690034
Loading
Personal Weather Stations






























Interactive Weather Map
Tropical Storm Tracking
New forecast layout! Learn more

10-Day Weather Forecast

Advertisements
Track Severe Weather on mobile